CheckWX is a tool to help pilots better visualize weather data.  It is not intended as a substitute for an official pre-flight weather briefing.

05:39:05 UTC

KGJT TAF
Grand Junction Regional Airport
Grand Junction, Colorado, USA
KGJT 240527Z 2406/2506 VRB06KT P6SM SCT170 FM241500 29006KT P6SM FEW200 FM250000 33010KT P6SM FEW250 FM250300 36009KT P6SM FEW200

May-24@
06:00 UTC

May-24 @ 06:00 UTC

May-24@
15:00 UTC

May-24 @ 15:00 UTC

TAF KGJT 240527Z 2406/2506 VRB06KT P6SM SCT170

Expired

Wind
  • Variable at 6 KTS
Cloud Levels
  • Scattered at 17,000' AGL

May-24@
15:00 UTC

May-24 @ 15:00 UTC

May-25@
00:00 UTC

May-25 @ 00:00 UTC

FM241500 29006KT P6SM FEW200

Expired

Wind
  • 290° at 6 KTS
Cloud Levels
  • Few at 20,000' AGL

May-25@
00:00 UTC

May-25 @ 00:00 UTC

May-25@
03:00 UTC

May-25 @ 03:00 UTC

FM250000 33010KT P6SM FEW250

Expired

Wind
  • 330° at 10 KTS
Cloud Levels
  • Few at 25,000' AGL

May-25@
03:00 UTC

May-25 @ 03:00 UTC

May-25@
06:00 UTC

May-25 @ 06:00 UTC

FM250300 36009KT P6SM FEW200

From

From Standard forecast or significant change

Wind
  • 360° at 9 KTS
Cloud Levels
  • Few at 20,000' AGL